sensor_id;sensor_type;location;lat;lon;timestamp;pressure;altitude;pressure_sealevel;temperature;humidity
55187;BME280;55457;52.002;5.464;2023-05-21T00:02:14;101744.22;;;22.25;43.75
55187;BME280;55457;52.002;5.464;2023-05-21T00:04:45;101747.75;;;22.25;43.85
55187;BME280;55457;52.002;5.464;2023-05-21T00:07:11;101751.31;;;22.26;43.85
55187;BME280;55457;52.002;5.464;2023-05-21T00:09:37;101752.38;;;22.25;43.60
55187;BME280;55457;52.002;5.464;2023-05-21T00:12:06;101741.50;;;22.25;43.85
55187;BME280;55457;52.002;5.464;2023-05-21T00:14:32;101744.22;;;22.25;44.03
55187;BME280;55457;52.002;5.464;2023-05-21T00:16:57;101746.94;;;22.25;44.09
55187;BME280;55457;52.002;5.464;2023-05-21T00:19:23;101744.22;;;22.25;43.66
55187;BME280;55457;52.002;5.464;2023-05-21T00:21:48;101738.78;;;22.25;43.63
55187;BME280;55457;52.002;5.464;2023-05-21T00:24:14;101736.28;;;22.23;43.73
55187;BME280;55457;52.002;5.464;2023-05-21T00:26:40;101727.31;;;22.23;43.71
55187;BME280;55457;52.002;5.464;2023-05-21T00:29:05;101737.13;;;22.24;43.78
55187;BME280;55457;52.002;5.464;2023-05-21T00:31:30;101728.97;;;22.24;44.00
55187;BME280;55457;52.002;5.464;2023-05-21T00:33:56;101729.22;;;22.22;43.81
55187;BME280;55457;52.002;5.464;2023-05-21T00:36:21;101728.38;;;22.22;44.02
55187;BME280;55457;52.002;5.464;2023-05-21T00:38:49;101720.25;;;22.22;43.96
55187;BME280;55457;52.002;5.464;2023-05-21T00:41:15;101729.22;;;22.22;43.84
55187;BME280;55457;52.002;5.464;2023-05-21T00:43:41;101723.53;;;22.24;43.82
55187;BME280;55457;52.002;5.464;2023-05-21T00:46:13;101727.31;;;22.23;44.13
55187;BME280;55457;52.002;5.464;2023-05-21T00:48:41;101721.06;;;22.22;44.12
55187;BME280;55457;52.002;5.464;2023-05-21T00:51:07;101720.25;;;22.22;43.88
55187;BME280;55457;52.002;5.464;2023-05-21T00:53:32;101719.41;;;22.21;44.21
55187;BME280;55457;52.002;5.464;2023-05-21T00:56:01;101714.81;;;22.22;43.92
55187;BME280;55457;52.002;5.464;2023-05-21T00:58:28;101712.09;;;22.22;43.79
55187;BME280;55457;52.002;5.464;2023-05-21T01:00:53;101712.34;;;22.20;44.15
55187;BME280;55457;52.002;5.464;2023-05-21T01:03:22;101716.72;;;22.21;43.89
55187;BME280;55457;52.002;5.464;2023-05-21T01:05:51;101714.81;;;22.22;44.02
55187;BME280;55457;52.002;5.464;2023-05-21T01:08:21;101717.53;;;22.22;44.08
55187;BME280;55457;52.002;5.464;2023-05-21T01:10:48;101705.03;;;22.21;44.27
55187;BME280;55457;52.002;5.464;2023-05-21T01:13:14;101712.34;;;22.20;44.19
55187;BME280;55457;52.002;5.464;2023-05-21T01:15:42;101705.03;;;22.21;44.21
55187;BME280;55457;52.002;5.464;2023-05-21T01:18:08;101702.31;;;22.21;43.95
55187;BME280;55457;52.002;5.464;2023-05-21T01:20:33;101707.75;;;22.21;43.85
55187;BME280;55457;52.002;5.464;2023-05-21T01:22:59;101697.94;;;22.20;43.92
55187;BME280;55457;52.002;5.464;2023-05-21T01:25:24;101705.03;;;22.21;44.09
55187;BME280;55457;52.002;5.464;2023-05-21T01:27:50;101689.81;;;22.20;44.21
55187;BME280;55457;52.002;5.464;2023-05-21T01:30:17;101696.88;;;22.21;44.10
55187;BME280;55457;52.002;5.464;2023-05-21T01:33:03;101700.66;;;22.20;43.94
55187;BME280;55457;52.002;5.464;2023-05-21T01:35:38;101702.31;;;22.21;44.25
55187;BME280;55457;52.002;5.464;2023-05-21T01:38:13;101695.22;;;22.20;44.16
55187;BME280;55457;52.002;5.464;2023-05-21T01:43:46;101690.63;;;22.20;44.23
55187;BME280;55457;52.002;5.464;2023-05-21T01:46:16;101697.94;;;22.20;44.23
55187;BME280;55457;52.002;5.464;2023-05-21T01:48:42;101697.94;;;22.20;44.44
55187;BME280;55457;52.002;5.464;2023-05-21T01:51:08;101694.41;;;22.19;44.21
55187;BME280;55457;52.002;5.464;2023-05-21T01:53:34;101695.22;;;22.20;44.22
55187;BME280;55457;52.002;5.464;2023-05-21T01:55:59;101699.59;;;22.21;44.50
55187;BME280;55457;52.002;5.464;2023-05-21T01:58:26;101700.66;;;22.20;44.24
55187;BME280;55457;52.002;5.464;2023-05-21T02:00:52;101699.84;;;22.19;44.47
55187;BME280;55457;52.002;5.464;2023-05-21T02:03:18;101697.13;;;22.19;44.17
55187;BME280;55457;52.002;5.464;2023-05-21T02:05:44;101688.16;;;22.19;44.09
55187;BME280;55457;52.002;5.464;2023-05-21T02:08:10;101693.59;;;22.19;44.40
55187;BME280;55457;52.002;5.464;2023-05-21T02:10:37;101690.88;;;22.19;44.42
55187;BME280;55457;52.002;5.464;2023-05-21T02:13:03;101693.59;;;22.19;44.25
55187;BME280;55457;52.002;5.464;2023-05-21T02:15:28;101691.91;;;22.18;44.25
55187;BME280;55457;52.002;5.464;2023-05-21T02:17:54;101692.72;;;22.18;44.21
55187;BME280;55457;52.002;5.464;2023-05-21T02:20:19;101686.47;;;22.18;44.35
55187;BME280;55457;52.002;5.464;2023-05-21T02:22:47;101686.47;;;22.18;44.25
55187;BME280;55457;52.002;5.464;2023-05-21T02:25:15;101686.47;;;22.18;44.23
55187;BME280;55457;52.002;5.464;2023-05-21T02:27:41;101691.91;;;22.18;44.56
55187;BME280;55457;52.002;5.464;2023-05-21T02:30:10;101686.47;;;22.18;44.27
55187;BME280;55457;52.002;5.464;2023-05-21T02:32:36;101683.75;;;22.18;44.29
55187;BME280;55457;52.002;5.464;2023-05-21T02:35:03;101690.25;;;22.17;44.30
55187;BME280;55457;52.002;5.464;2023-05-21T02:37:30;101687.28;;;22.18;44.09
55187;BME280;55457;52.002;5.464;2023-05-21T02:39:58;101690.25;;;22.17;44.24
55187;BME280;55457;52.002;5.464;2023-05-21T02:42:24;101690.25;;;22.17;44.70
55187;BME280;55457;52.002;5.464;2023-05-21T02:44:50;101689.19;;;22.18;44.40
55187;BME280;55457;52.002;5.464;2023-05-21T02:47:19;101685.66;;;22.17;44.42
55187;BME280;55457;52.002;5.464;2023-05-21T02:49:45;101688.16;;;22.19;44.16
55187;BME280;55457;52.002;5.464;2023-05-21T02:52:10;101681.03;;;22.18;44.38
55187;BME280;55457;52.002;5.464;2023-05-21T02:54:36;101684.81;;;22.17;44.39
55187;BME280;55457;52.002;5.464;2023-05-21T02:57:01;101680.47;;;22.16;44.14
55187;BME280;55457;52.002;5.464;2023-05-21T02:59:26;101691.91;;;22.18;44.41
55187;BME280;55457;52.002;5.464;2023-05-21T03:01:52;101690.25;;;22.17;44.64
55187;BME280;55457;52.002;5.464;2023-05-21T03:04:17;101683.19;;;22.16;44.67
55187;BME280;55457;52.002;5.464;2023-05-21T03:06:46;101690.25;;;22.17;44.56
55187;BME280;55457;52.002;5.464;2023-05-21T03:09:11;101680.47;;;22.16;44.43
55187;BME280;55457;52.002;5.464;2023-05-21T03:11:37;101677.75;;;22.16;44.32
55187;BME280;55457;52.002;5.464;2023-05-21T03:14:02;101677.75;;;22.16;44.72
55187;BME280;55457;52.002;5.464;2023-05-21T03:16:27;101682.13;;;22.17;44.44
55187;BME280;55457;52.002;5.464;2023-05-21T03:18:53;101668.78;;;22.15;44.51
55187;BME280;55457;52.002;5.464;2023-05-21T03:21:18;101679.41;;;22.17;44.30
55187;BME280;55457;52.002;5.464;2023-05-21T03:23:47;101671.25;;;22.17;44.50
55187;BME280;55457;52.002;5.464;2023-05-21T03:26:13;101673.38;;;22.14;44.29
55187;BME280;55457;52.002;5.464;2023-05-21T03:28:39;101672.31;;;22.16;44.52
55187;BME280;55457;52.002;5.464;2023-05-21T03:31:05;101670.44;;;22.16;44.45
55187;BME280;55457;52.002;5.464;2023-05-21T03:33:31;101672.31;;;22.16;44.41
55187;BME280;55457;52.002;5.464;2023-05-21T03:35:56;101666.06;;;22.15;44.65
55187;BME280;55457;52.002;5.464;2023-05-21T03:38:21;101660.63;;;22.15;44.79
55187;BME280;55457;52.002;5.464;2023-05-21T03:40:47;101661.47;;;22.16;44.43
55187;BME280;55457;52.002;5.464;2023-05-21T03:43:13;101658.16;;;22.13;44.71
55187;BME280;55457;52.002;5.464;2023-05-21T03:45:38;101658.16;;;22.13;44.72
55187;BME280;55457;52.002;5.464;2023-05-21T03:48:03;101664.19;;;22.16;44.25
55187;BME280;55457;52.002;5.464;2023-05-21T03:50:29;101666.06;;;22.15;44.49
55187;BME280;55457;52.002;5.464;2023-05-21T03:52:55;101666.06;;;22.15;44.43
55187;BME280;55457;52.002;5.464;2023-05-21T03:55:20;101662.53;;;22.14;44.81
55187;BME280;55457;52.002;5.464;2023-05-21T03:57:45;101658.16;;;22.13;44.80
55187;BME280;55457;52.002;5.464;2023-05-21T04:00:11;101663.59;;;22.13;44.63
55187;BME280;55457;52.002;5.464;2023-05-21T04:02:36;101665.25;;;22.14;44.60
55187;BME280;55457;52.002;5.464;2023-05-21T04:05:02;101663.34;;;22.15;44.52
55187;BME280;55457;52.002;5.464;2023-05-21T04:07:27;101658.16;;;22.13;44.55
55187;BME280;55457;52.002;5.464;2023-05-21T04:09:54;101653.56;;;22.14;44.67
55187;BME280;55457;52.002;5.464;2023-05-21T04:12:19;101650.84;;;22.14;44.61
55187;BME280;55457;52.002;5.464;2023-05-21T04:14:45;101661.91;;;22.12;44.58
55187;BME280;55457;52.002;5.464;2023-05-21T04:17:11;101668.16;;;22.13;44.72
55187;BME280;55457;52.002;5.464;2023-05-21T04:19:39;101669.03;;;22.13;44.72
55187;BME280;55457;52.002;5.464;2023-05-21T04:22:05;101662.75;;;22.13;44.53
55187;BME280;55457;52.002;5.464;2023-05-21T04:24:30;101667.34;;;22.12;44.78
55187;BME280;55457;52.002;5.464;2023-05-21T04:26:56;101661.91;;;22.12;44.75
55187;BME280;55457;52.002;5.464;2023-05-21T04:29:25;101663.59;;;22.13;44.71
55187;BME280;55457;52.002;5.464;2023-05-21T04:31:51;101675.28;;;22.14;45.02
55187;BME280;55457;52.002;5.464;2023-05-21T04:34:16;101662.75;;;22.13;44.95
55187;BME280;55457;52.002;5.464;2023-05-21T04:36:42;101666.53;;;22.12;44.71
55187;BME280;55457;52.002;5.464;2023-05-21T04:39:08;101661.91;;;22.12;44.78
55187;BME280;55457;52.002;5.464;2023-05-21T04:41:33;101663.00;;;22.11;44.60
55187;BME280;55457;52.002;5.464;2023-05-21T04:43:58;101663.59;;;22.13;44.67
55187;BME280;55457;52.002;5.464;2023-05-21T04:46:25;101666.31;;;22.13;44.65
55187;BME280;55457;52.002;5.464;2023-05-21T04:48:53;101662.75;;;22.13;44.58
55187;BME280;55457;52.002;5.464;2023-05-21T04:51:22;101665.47;;;22.13;45.00
55187;BME280;55457;52.002;5.464;2023-05-21T04:53:51;101662.75;;;22.13;44.59
55187;BME280;55457;52.002;5.464;2023-05-21T04:56:18;101659.22;;;22.12;44.64
55187;BME280;55457;52.002;5.464;2023-05-21T04:58:44;101661.91;;;22.12;44.72
55187;BME280;55457;52.002;5.464;2023-05-21T05:01:10;101669.03;;;22.13;44.67
55187;BME280;55457;52.002;5.464;2023-05-21T05:03:37;101672.78;;;22.12;44.64
55187;BME280;55457;52.002;5.464;2023-05-21T05:06:02;101666.53;;;22.12;44.62
55187;BME280;55457;52.002;5.464;2023-05-21T05:08:28;101672.78;;;22.12;44.64
55187;BME280;55457;52.002;5.464;2023-05-21T05:10:54;101677.16;;;22.13;44.88
55187;BME280;55457;52.002;5.464;2023-05-21T05:13:19;101667.34;;;22.12;44.74
55187;BME280;55457;52.002;5.464;2023-05-21T05:15:44;101671.75;;;22.13;44.73
55187;BME280;55457;52.002;5.464;2023-05-21T05:18:10;101663.59;;;22.13;44.93
55187;BME280;55457;52.002;5.464;2023-05-21T05:20:36;101661.91;;;22.12;45.02
55187;BME280;55457;52.002;5.464;2023-05-21T05:23:01;101670.06;;;22.12;45.00
55187;BME280;55457;52.002;5.464;2023-05-21T05:25:27;101674.47;;;22.13;44.93
55187;BME280;55457;52.002;5.464;2023-05-21T05:27:52;101680.94;;;22.12;44.85
55187;BME280;55457;52.002;5.464;2023-05-21T05:30:17;101668.16;;;22.13;44.79
55187;BME280;55457;52.002;5.464;2023-05-21T05:32:43;101667.34;;;22.12;45.02
55187;BME280;55457;52.002;5.464;2023-05-21T05:35:08;101660.03;;;22.13;44.81
55187;BME280;55457;52.002;5.464;2023-05-21T05:37:33;101670.69;;;22.14;44.91
55187;BME280;55457;52.002;5.464;2023-05-21T05:39:59;101663.59;;;22.13;44.88
55187;BME280;55457;52.002;5.464;2023-05-21T05:42:24;101663.59;;;22.13;45.00
55187;BME280;55457;52.002;5.464;2023-05-21T05:44:50;101667.13;;;22.14;45.06
55187;BME280;55457;52.002;5.464;2023-05-21T05:47:15;101661.72;;;22.14;44.83
55187;BME280;55457;52.002;5.464;2023-05-21T05:49:41;101663.59;;;22.13;44.67
55187;BME280;55457;52.002;5.464;2023-05-21T05:52:06;101659.81;;;22.14;44.90
55187;BME280;55457;52.002;5.464;2023-05-21T05:54:32;101667.97;;;22.14;45.03
55187;BME280;55457;52.002;5.464;2023-05-21T05:56:57;101667.13;;;22.14;45.04
55187;BME280;55457;52.002;5.464;2023-05-21T05:59:23;101657.09;;;22.14;44.85
55187;BME280;55457;52.002;5.464;2023-05-21T06:01:48;101663.34;;;22.15;44.85
55187;BME280;55457;52.002;5.464;2023-05-21T06:04:13;101658.75;;;22.16;44.83
55187;BME280;55457;52.002;5.464;2023-05-21T06:06:39;101659.81;;;22.14;44.90
55187;BME280;55457;52.002;5.464;2023-05-21T06:09:04;101659.81;;;22.14;44.97
55187;BME280;55457;52.002;5.464;2023-05-21T06:11:30;101657.09;;;22.14;44.93
55187;BME280;55457;52.002;5.464;2023-05-21T06:13:55;101662.03;;;22.18;44.92
55187;BME280;55457;52.002;5.464;2023-05-21T06:16:21;101655.56;;;22.19;44.92
55187;BME280;55457;52.002;5.464;2023-05-21T06:18:46;101654.50;;;22.20;45.21
55187;BME280;55457;52.002;5.464;2023-05-21T06:21:12;101641.75;;;22.20;45.04
55187;BME280;55457;52.002;5.464;2023-05-21T06:23:37;101654.25;;;22.21;45.21
55187;BME280;55457;52.002;5.464;2023-05-21T06:26:03;101644.22;;;22.22;45.51
55187;BME280;55457;52.002;5.464;2023-05-21T06:28:28;101651.53;;;22.21;45.21
55187;BME280;55457;52.002;5.464;2023-05-21T06:30:54;101645.88;;;22.23;45.23
55187;BME280;55457;52.002;5.464;2023-05-21T06:33:19;101650.47;;;22.22;45.35
55187;BME280;55457;52.002;5.464;2023-05-21T06:35:45;101658.63;;;22.22;45.57
55187;BME280;55457;52.002;5.464;2023-05-21T06:38:10;101644.81;;;22.24;45.70
55187;BME280;55457;52.002;5.464;2023-05-21T06:40:36;101640.44;;;22.23;45.84
55187;BME280;55457;52.002;5.464;2023-05-21T06:43:01;101644.22;;;22.22;45.63
55187;BME280;55457;52.002;5.464;2023-05-21T06:45:28;101642.94;;;22.24;45.84
55187;BME280;55457;52.002;5.464;2023-05-21T06:47:54;101640.22;;;22.24;46.29
55187;BME280;55457;52.002;5.464;2023-05-21T06:50:19;101642.69;;;22.26;46.09
55187;BME280;55457;52.002;5.464;2023-05-21T06:52:45;101639.97;;;22.26;46.16
55187;BME280;55457;52.002;5.464;2023-05-21T06:55:10;101638.34;;;22.25;46.06
55187;BME280;55457;52.002;5.464;2023-05-21T06:57:37;101639.97;;;22.26;45.88
55187;BME280;55457;52.002;5.464;2023-05-21T07:00:02;101629.69;;;22.28;46.02
55187;BME280;55457;52.002;5.464;2023-05-21T07:02:28;101635.13;;;22.28;46.23
55187;BME280;55457;52.002;5.464;2023-05-21T07:04:53;101639.50;;;22.29;46.28
55187;BME280;55457;52.002;5.464;2023-05-21T07:07:19;101631.34;;;22.29;46.47
55187;BME280;55457;52.002;5.464;2023-05-21T07:09:45;101628.41;;;22.30;46.40
55187;BME280;55457;52.002;5.464;2023-05-21T07:12:10;101633.03;;;22.30;46.26
55187;BME280;55457;52.002;5.464;2023-05-21T07:14:35;101633.59;;;22.32;46.26
55187;BME280;55457;52.002;5.464;2023-05-21T07:17:01;101631.13;;;22.30;46.17
55187;BME280;55457;52.002;5.464;2023-05-21T07:19:26;101634.66;;;22.31;46.50
55187;BME280;55457;52.002;5.464;2023-05-21T07:21:51;101639.03;;;22.32;46.44
55187;BME280;55457;52.002;5.464;2023-05-21T07:24:17;101642.00;;;22.30;46.28
55187;BME280;55457;52.002;5.464;2023-05-21T07:26:42;101641.75;;;22.32;46.27
55187;BME280;55457;52.002;5.464;2023-05-21T07:29:07;101643.16;;;22.34;46.11
55187;BME280;55457;52.002;5.464;2023-05-21T07:31:33;101645.03;;;22.34;46.37
55187;BME280;55457;52.002;5.464;2023-05-21T07:33:58;101644.22;;;22.33;46.21
55187;BME280;55457;52.002;5.464;2023-05-21T07:36:23;101640.66;;;22.33;46.42
55187;BME280;55457;52.002;5.464;2023-05-21T07:38:50;101651.31;;;22.34;46.20
55187;BME280;55457;52.002;5.464;2023-05-21T07:41:15;101649.44;;;22.35;46.56
55187;BME280;55457;52.002;5.464;2023-05-21T07:43:40;101644.00;;;22.35;46.38
55187;BME280;55457;52.002;5.464;2023-05-21T07:46:06;101647.75;;;22.34;46.77
55187;BME280;55457;52.002;5.464;2023-05-21T07:48:31;101650.47;;;22.34;46.96
55187;BME280;55457;52.002;5.464;2023-05-21T07:50:57;101645.63;;;22.36;46.90
55187;BME280;55457;52.002;5.464;2023-05-21T07:53:23;101644.81;;;22.35;47.00
55187;BME280;55457;52.002;5.464;2023-05-21T07:55:48;101634.53;;;22.37;46.91
55187;BME280;55457;52.002;5.464;2023-05-21T07:58:17;101633.72;;;22.37;46.68
55187;BME280;55457;52.002;5.464;2023-05-21T08:00:44;101629.94;;;22.38;47.00
55187;BME280;55457;52.002;5.464;2023-05-21T08:03:16;101636.19;;;22.38;46.80
55187;BME280;55457;52.002;5.464;2023-05-21T08:05:46;101631.56;;;22.39;46.62
55187;BME280;55457;52.002;5.464;2023-05-21T08:08:18;101626.75;;;22.41;46.81
55187;BME280;55457;52.002;5.464;2023-05-21T08:10:44;101618.34;;;22.43;46.55
55187;BME280;55457;52.002;5.464;2023-05-21T08:13:14;101623.53;;;22.44;46.49
55187;BME280;55457;52.002;5.464;2023-05-21T08:15:40;101624.13;;;22.46;46.54
55187;BME280;55457;52.002;5.464;2023-05-21T08:18:05;101614.34;;;22.45;46.59
55187;BME280;55457;52.002;5.464;2023-05-21T08:20:31;101616.56;;;22.48;46.89
55187;BME280;55457;52.002;5.464;2023-05-21T08:22:58;101610.56;;;22.46;46.90
55187;BME280;55457;52.002;5.464;2023-05-21T08:25:24;101614.91;;;22.47;46.67
55187;BME280;55457;52.002;5.464;2023-05-21T08:27:50;101616.56;;;22.48;46.71
55187;BME280;55457;52.002;5.464;2023-05-21T08:30:16;101617.38;;;22.49;46.75
55187;BME280;55457;52.002;5.464;2023-05-21T08:32:41;101614.47;;;22.50;46.97
55187;BME280;55457;52.002;5.464;2023-05-21T08:35:07;101623.19;;;22.52;46.91
55187;BME280;55457;52.002;5.464;2023-05-21T08:37:32;101618.56;;;22.53;47.05
55187;BME280;55457;52.002;5.464;2023-05-21T08:39:58;101621.03;;;22.54;46.81
55187;BME280;55457;52.002;5.464;2023-05-21T08:42:44;101616.22;;;22.56;46.99
55187;BME280;55457;52.002;5.464;2023-05-21T08:45:11;101617.28;;;22.55;46.72
55187;BME280;55457;52.002;5.464;2023-05-21T08:47:41;101614.31;;;22.57;46.66
55187;BME280;55457;52.002;5.464;2023-05-21T08:50:08;101619.25;;;22.60;46.63
55187;BME280;55457;52.002;5.464;2023-05-21T08:52:34;101614.69;;;22.60;46.46
55187;BME280;55457;52.002;5.464;2023-05-21T08:55:02;101621.25;;;22.64;46.61
55187;BME280;55457;52.002;5.464;2023-05-21T08:57:29;101623.75;;;22.66;46.80
55187;BME280;55457;52.002;5.464;2023-05-21T08:59:55;101627.03;;;22.68;46.61
55187;BME280;55457;52.002;5.464;2023-05-21T09:02:20;101632.47;;;22.68;46.42
55187;BME280;55457;52.002;5.464;2023-05-21T09:04:46;101615.09;;;22.69;46.41
55187;BME280;55457;52.002;5.464;2023-05-21T09:07:14;101609.41;;;22.71;46.69
55187;BME280;55457;52.002;5.464;2023-05-21T09:09:55;101603.75;;;22.72;46.66
55187;BME280;55457;52.002;5.464;2023-05-21T09:12:25;101602.69;;;22.73;46.40
55187;BME280;55457;52.002;5.464;2023-05-21T09:14:51;101612.25;;;22.76;46.52
55187;BME280;55457;52.002;5.464;2023-05-21T09:17:17;101601.72;;;22.79;46.41
55187;BME280;55457;52.002;5.464;2023-05-21T09:22:34;101606.44;;;22.84;46.52
55187;BME280;55457;52.002;5.464;2023-05-21T09:25:03;101589.06;;;22.85;46.49
55187;BME280;55457;52.002;5.464;2023-05-21T09:27:29;101597.81;;;22.87;46.24
55187;BME280;55457;52.002;5.464;2023-05-21T09:29:54;101601.97;;;22.89;46.52
55187;BME280;55457;52.002;5.464;2023-05-21T09:32:19;101598.16;;;22.90;46.33
55187;BME280;55457;52.002;5.464;2023-05-21T09:34:46;101590.00;;;22.90;46.56
55187;BME280;55457;52.002;5.464;2023-05-21T09:37:12;101600.66;;;22.92;46.48
55187;BME280;55457;52.002;5.464;2023-05-21T09:39:40;101603.13;;;22.94;46.35
55187;BME280;55457;52.002;5.464;2023-05-21T09:42:06;101596.63;;;22.95;46.42
55187;BME280;55457;52.002;5.464;2023-05-21T09:44:33;101590.09;;;22.96;46.22
55187;BME280;55457;52.002;5.464;2023-05-21T09:46:58;101580.88;;;22.97;46.13
55187;BME280;55457;52.002;5.464;2023-05-21T09:49:25;101586.09;;;22.98;46.41
55187;BME280;55457;52.002;5.464;2023-05-21T09:51:54;101583.13;;;23.00;46.24
55187;BME280;55457;52.002;5.464;2023-05-21T09:54:21;101577.44;;;23.01;46.13
55187;BME280;55457;52.002;5.464;2023-05-21T09:56:47;101579.13;;;23.02;45.96
55187;BME280;55457;52.002;5.464;2023-05-21T09:59:12;101574.50;;;23.03;46.14
55187;BME280;55457;52.002;5.464;2023-05-21T10:01:38;101571.28;;;23.06;46.25
55187;BME280;55457;52.002;5.464;2023-05-21T10:04:06;101571.88;;;23.08;46.07
55187;BME280;55457;52.002;5.464;2023-05-21T10:06:37;101573.50;;;23.09;45.83
55187;BME280;55457;52.002;5.464;2023-05-21T10:09:08;101567.81;;;23.10;45.69
55187;BME280;55457;52.002;5.464;2023-05-21T10:11:35;101570.06;;;23.13;45.91
55187;BME280;55457;52.002;5.464;2023-05-21T10:14:08;101576.66;;;23.17;46.08
55187;BME280;55457;52.002;5.464;2023-05-21T10:16:38;101560.09;;;23.19;45.72
55187;BME280;55457;52.002;5.464;2023-05-21T10:19:04;101563.13;;;23.23;45.72
55187;BME280;55457;52.002;5.464;2023-05-21T10:21:35;101563.47;;;23.26;45.98
55187;BME280;55457;52.002;5.464;2023-05-21T10:24:01;101555.66;;;23.30;45.72
55187;BME280;55457;52.002;5.464;2023-05-21T10:26:27;101558.69;;;23.33;45.43
55187;BME280;55457;52.002;5.464;2023-05-21T10:28:55;101566.38;;;23.36;45.42
55187;BME280;55457;52.002;5.464;2023-05-21T10:31:23;101561.50;;;23.38;45.57
55187;BME280;55457;52.002;5.464;2023-05-21T10:33:53;101561.84;;;23.42;45.29
55187;BME280;55457;52.002;5.464;2023-05-21T10:36:19;101558.03;;;23.43;45.31
55187;BME280;55457;52.002;5.464;2023-05-21T10:38:46;101551.06;;;23.47;45.31
55187;BME280;55457;52.002;5.464;2023-05-21T10:41:13;101553.28;;;23.50;45.22
55187;BME280;55457;52.002;5.464;2023-05-21T10:58:01;101543.63;;;23.59;45.30
55187;BME280;55457;52.002;5.464;2023-05-21T11:00:35;101537.94;;;23.61;45.17
55187;BME280;55457;52.002;5.464;2023-05-21T11:03:02;101539.38;;;23.63;45.08
55187;BME280;55457;52.002;5.464;2023-05-21T11:05:50;101530.72;;;23.66;44.98
55187;BME280;55457;52.002;5.464;2023-05-21T11:08:30;101534.00;;;23.68;44.93
55187;BME280;55457;52.002;5.464;2023-05-21T11:10:56;101537.81;;;23.67;44.93
55187;BME280;55457;52.002;5.464;2023-05-21T11:13:24;101540.78;;;23.66;45.01
55187;BME280;55457;52.002;5.464;2023-05-21T11:21:13;101533.91;;;23.63;45.02
55187;BME280;55457;52.002;5.464;2023-05-21T11:23:58;101525.84;;;23.68;44.99
55187;BME280;55457;52.002;5.464;2023-05-21T11:26:27;101515.22;;;23.67;45.04
55187;BME280;55457;52.002;5.464;2023-05-21T11:31:31;101521.47;;;23.67;44.76
55187;BME280;55457;52.002;5.464;2023-05-21T11:34:19;101510.59;;;23.67;45.19
55187;BME280;55457;52.002;5.464;2023-05-21T11:39:40;101499.03;;;23.77;45.21
55187;BME280;55457;52.002;5.464;2023-05-21T11:42:05;101493.91;;;23.81;44.69
55187;BME280;55457;52.002;5.464;2023-05-21T11:47:07;101488.28;;;23.87;44.66
55187;BME280;55457;52.002;5.464;2023-05-21T11:49:33;101499.50;;;23.91;44.65
55187;BME280;55457;52.002;5.464;2023-05-21T11:51:59;101485.94;;;23.96;44.51
55187;BME280;55457;52.002;5.464;2023-05-21T11:54:26;101488.16;;;23.99;44.56
55187;BME280;55457;52.002;5.464;2023-05-21T11:56:53;101497.47;;;24.03;44.79
55187;BME280;55457;52.002;5.464;2023-05-21T11:59:19;101481.69;;;24.05;44.70
55187;BME280;55457;52.002;5.464;2023-05-21T12:01:44;101487.75;;;24.07;44.63
55187;BME280;55457;52.002;5.464;2023-05-21T12:04:10;101483.41;;;24.11;44.42
55187;BME280;55457;52.002;5.464;2023-05-21T12:06:41;101479.63;;;24.12;44.48
55187;BME280;55457;52.002;5.464;2023-05-21T12:09:10;101475.31;;;24.16;44.59
55187;BME280;55457;52.002;5.464;2023-05-21T12:11:40;101474.81;;;24.19;44.23
55187;BME280;55457;52.002;5.464;2023-05-21T12:14:14;101465.56;;;24.20;44.56
55187;BME280;55457;52.002;5.464;2023-05-21T12:16:40;101476.78;;;24.24;44.22
55187;BME280;55457;52.002;5.464;2023-05-21T12:19:05;101467.78;;;24.24;44.43
55187;BME280;55457;52.002;5.464;2023-05-21T12:21:31;101465.34;;;24.27;44.39
55187;BME280;55457;52.002;5.464;2023-05-21T12:23:57;101464.53;;;24.27;44.17
55187;BME280;55457;52.002;5.464;2023-05-21T12:26:23;101467.53;;;24.25;44.34
55187;BME280;55457;52.002;5.464;2023-05-21T12:28:55;101454.41;;;24.22;44.15
55187;BME280;55457;52.002;5.464;2023-05-21T12:31:21;101450.84;;;24.21;44.27
55187;BME280;55457;52.002;5.464;2023-05-21T12:33:50;101456.88;;;24.24;44.27
55187;BME280;55457;52.002;5.464;2023-05-21T12:36:26;101465.06;;;24.24;44.47
55187;BME280;55457;52.002;5.464;2023-05-21T12:38:52;101470.50;;;24.24;44.59
55187;BME280;55457;52.002;5.464;2023-05-21T12:41:18;101464.53;;;24.27;44.33
55187;BME280;55457;52.002;5.464;2023-05-21T12:43:44;101460.75;;;24.28;44.49
55187;BME280;55457;52.002;5.464;2023-05-21T12:46:10;101464.84;;;24.30;44.26
55187;BME280;55457;52.002;5.464;2023-05-21T12:48:40;101456.94;;;24.29;44.45
55187;BME280;55457;52.002;5.464;2023-05-21T12:51:07;101467.25;;;24.27;44.14
55187;BME280;55457;52.002;5.464;2023-05-21T12:53:36;101459.63;;;24.24;44.40
55187;BME280;55457;52.002;5.464;2023-05-21T12:56:12;101451.94;;;24.20;44.36
55187;BME280;55457;52.002;5.464;2023-05-21T12:58:41;101456.31;;;24.21;44.39
55187;BME280;55457;52.002;5.464;2023-05-21T13:01:07;101464.75;;;24.20;44.44
55187;BME280;55457;52.002;5.464;2023-05-21T13:03:37;101460.09;;;24.20;44.38
55187;BME280;55457;52.002;5.464;2023-05-21T13:06:05;101462.34;;;24.24;44.27
55187;BME280;55457;52.002;5.464;2023-05-21T13:08:31;101469.41;;;24.25;44.38
55187;BME280;55457;52.002;5.464;2023-05-21T13:10:59;101449.00;;;24.27;44.12
55187;BME280;55457;52.002;5.464;2023-05-21T13:13:25;101454.47;;;24.27;44.29
55187;BME280;55457;52.002;5.464;2023-05-21T13:15:51;101444.41;;;24.28;44.27
55187;BME280;55457;52.002;5.464;2023-05-21T13:18:17;101442.75;;;24.27;44.48
55187;BME280;55457;52.002;5.464;2023-05-21T13:20:45;101448.19;;;24.27;44.45
55187;BME280;55457;52.002;5.464;2023-05-21T13:23:10;101444.41;;;24.28;44.33